sensor_id;sensor_type;location;lat;lon;timestamp;pressure;altitude;pressure_sealevel;temperature;humidity
57900;BME280;60605;53.716;19.940;2023-03-15T00:04:48;98774.93;;;2.46;100.00
57900;BME280;60605;53.716;19.940;2023-03-15T00:09:50;98779.85;;;2.42;100.00
57900;BME280;60605;53.716;19.940;2023-03-15T00:14:52;98795.56;;;2.38;100.00
57900;BME280;60605;53.716;19.940;2023-03-15T00:19:54;98807.96;;;2.35;100.00
57900;BME280;60605;53.716;19.940;2023-03-15T00:24:56;98820.66;;;2.33;100.00
57900;BME280;60605;53.716;19.940;2023-03-15T00:29:58;98833.08;;;2.32;100.00
57900;BME280;60605;53.716;19.940;2023-03-15T00:35:00;98834.27;;;2.32;100.00
57900;BME280;60605;53.716;19.940;2023-03-15T00:40:02;98839.05;;;2.32;100.00
57900;BME280;60605;53.716;19.940;2023-03-15T00:45:06;98856.26;;;2.33;100.00
57900;BME280;60605;53.716;19.940;2023-03-15T00:50:08;98865.40;;;2.35;100.00
57900;BME280;60605;53.716;19.940;2023-03-15T00:55:12;98870.13;;;2.35;100.00
57900;BME280;60605;53.716;19.940;2023-03-15T01:05:25;98902.56;;;2.37;100.00
57900;BME280;60605;53.716;19.940;2023-03-15T01:10:27;98902.20;;;2.37;100.00
57900;BME280;60605;53.716;19.940;2023-03-15T01:15:29;98904.07;;;2.38;100.00
57900;BME280;60605;53.716;19.940;2023-03-15T01:20:31;98910.68;;;2.39;100.00
57900;BME280;60605;53.716;19.940;2023-03-15T01:25:33;98929.48;;;2.39;100.00
57900;BME280;60605;53.716;19.940;2023-03-15T01:30:35;98946.99;;;2.41;100.00
57900;BME280;60605;53.716;19.940;2023-03-15T01:35:37;98962.83;;;2.41;100.00
57900;BME280;60605;53.716;19.940;2023-03-15T01:40:44;98964.86;;;2.42;100.00
57900;BME280;60605;53.716;19.940;2023-03-15T01:51:08;98959.23;;;2.44;100.00
57900;BME280;60605;53.716;19.940;2023-03-15T01:56:13;98975.67;;;2.43;100.00
57900;BME280;60605;53.716;19.940;2023-03-15T02:01:15;98989.84;;;2.42;100.00
57900;BME280;60605;53.716;19.940;2023-03-15T02:06:19;98988.66;;;2.41;100.00
57900;BME280;60605;53.716;19.940;2023-03-15T02:11:24;99005.63;;;2.41;100.00
57900;BME280;60605;53.716;19.940;2023-03-15T02:16:27;99036.61;;;2.41;100.00
57900;BME280;60605;53.716;19.940;2023-03-15T02:21:53;99031.33;;;2.39;100.00
57900;BME280;60605;53.716;19.940;2023-03-15T02:26:57;99021.75;;;2.34;100.00
57900;BME280;60605;53.716;19.940;2023-03-15T02:32:00;99033.55;;;2.26;100.00
57900;BME280;60605;53.716;19.940;2023-03-15T02:37:05;99043.81;;;2.15;100.00
57900;BME280;60605;53.716;19.940;2023-03-15T02:42:07;99039.16;;;2.04;100.00
57900;BME280;60605;53.716;19.940;2023-03-15T02:47:15;99057.23;;;1.94;100.00
57900;BME280;60605;53.716;19.940;2023-03-15T02:52:20;99075.05;;;1.87;100.00
57900;BME280;60605;53.716;19.940;2023-03-15T02:57:22;99092.43;;;1.83;100.00
57900;BME280;60605;53.716;19.940;2023-03-15T03:02:24;99119.20;;;1.83;100.00
57900;BME280;60605;53.716;19.940;2023-03-15T03:07:26;99134.17;;;1.83;100.00
57900;BME280;60605;53.716;19.940;2023-03-15T03:12:28;99143.08;;;1.82;100.00
57900;BME280;60605;53.716;19.940;2023-03-15T03:17:30;99155.44;;;1.83;100.00
57900;BME280;60605;53.716;19.940;2023-03-15T03:22:33;99154.91;;;1.88;100.00
57900;BME280;60605;53.716;19.940;2023-03-15T03:27:35;99153.86;;;1.94;100.00
57900;BME280;60605;53.716;19.940;2023-03-15T03:32:39;99158.14;;;2.00;100.00
57900;BME280;60605;53.716;19.940;2023-03-15T03:37:41;99168.95;;;2.03;100.00
57900;BME280;60605;53.716;19.940;2023-03-15T03:42:43;99182.23;;;2.09;100.00
57900;BME280;60605;53.716;19.940;2023-03-15T03:47:45;99199.38;;;2.16;100.00
57900;BME280;60605;53.716;19.940;2023-03-15T03:52:48;99214.48;;;2.25;100.00
57900;BME280;60605;53.716;19.940;2023-03-15T03:57:51;99226.77;;;2.32;100.00
57900;BME280;60605;53.716;19.940;2023-03-15T04:02:56;99241.90;;;2.36;100.00
57900;BME280;60605;53.716;19.940;2023-03-15T04:07:58;99254.16;;;2.37;100.00
57900;BME280;60605;53.716;19.940;2023-03-15T04:13:00;99264.60;;;2.33;100.00
57900;BME280;60605;53.716;19.940;2023-03-15T04:18:02;99271.15;;;2.26;100.00
57900;BME280;60605;53.716;19.940;2023-03-15T04:23:06;99280.93;;;2.16;100.00
57900;BME280;60605;53.716;19.940;2023-03-15T04:28:09;99288.47;;;2.03;100.00
57900;BME280;60605;53.716;19.940;2023-03-15T04:33:13;99305.89;;;1.91;100.00
57900;BME280;60605;53.716;19.940;2023-03-15T04:38:15;99312.13;;;1.78;100.00
57900;BME280;60605;53.716;19.940;2023-03-15T04:43:17;99311.21;;;1.66;100.00
57900;BME280;60605;53.716;19.940;2023-03-15T04:48:19;99319.48;;;1.55;100.00
57900;BME280;60605;53.716;19.940;2023-03-15T04:53:21;99325.65;;;1.44;100.00
57900;BME280;60605;53.716;19.940;2023-03-15T04:58:23;99340.58;;;1.33;100.00
57900;BME280;60605;53.716;19.940;2023-03-15T05:03:24;99348.49;;;1.23;100.00
57900;BME280;60605;53.716;19.940;2023-03-15T05:08:26;99366.14;;;1.18;100.00
57900;BME280;60605;53.716;19.940;2023-03-15T05:13:28;99378.98;;;1.20;100.00
57900;BME280;60605;53.716;19.940;2023-03-15T05:18:30;99388.44;;;1.30;100.00
57900;BME280;60605;53.716;19.940;2023-03-15T05:23:32;99395.88;;;1.43;100.00
57900;BME280;60605;53.716;19.940;2023-03-15T05:28:34;99410.15;;;1.56;100.00
57900;BME280;60605;53.716;19.940;2023-03-15T05:33:36;99424.96;;;1.67;100.00
57900;BME280;60605;53.716;19.940;2023-03-15T05:38:38;99435.98;;;1.74;100.00
57900;BME280;60605;53.716;19.940;2023-03-15T05:43:39;99442.96;;;1.85;100.00
57900;BME280;60605;53.716;19.940;2023-03-15T05:48:41;99454.09;;;1.96;100.00
57900;BME280;60605;53.716;19.940;2023-03-15T05:53:43;99459.11;;;2.17;100.00
57900;BME280;60605;53.716;19.940;2023-03-15T05:58:47;99468.40;;;2.42;100.00
57900;BME280;60605;53.716;19.940;2023-03-15T06:03:49;99478.45;;;2.54;100.00
57900;BME280;60605;53.716;19.940;2023-03-15T06:08:51;99488.69;;;2.63;100.00
57900;BME280;60605;53.716;19.940;2023-03-15T06:13:53;99493.31;;;2.71;100.00
57900;BME280;60605;53.716;19.940;2023-03-15T06:18:54;99503.27;;;2.77;100.00
57900;BME280;60605;53.716;19.940;2023-03-15T06:23:56;99510.59;;;2.78;100.00
57900;BME280;60605;53.716;19.940;2023-03-15T06:28:58;99523.05;;;2.81;100.00
57900;BME280;60605;53.716;19.940;2023-03-15T06:34:01;99534.42;;;2.84;100.00
57900;BME280;60605;53.716;19.940;2023-03-15T06:39:04;99541.94;;;2.87;100.00
57900;BME280;60605;53.716;19.940;2023-03-15T06:44:07;99557.08;;;2.96;100.00
57900;BME280;60605;53.716;19.940;2023-03-15T06:49:10;99563.27;;;3.07;100.00
57900;BME280;60605;53.716;19.940;2023-03-15T06:54:12;99566.83;;;3.30;100.00
57900;BME280;60605;53.716;19.940;2023-03-15T06:59:14;99570.61;;;3.65;100.00
57900;BME280;60605;53.716;19.940;2023-03-15T07:04:16;99574.92;;;3.96;100.00
57900;BME280;60605;53.716;19.940;2023-03-15T07:09:18;99585.76;;;4.20;100.00
57900;BME280;60605;53.716;19.940;2023-03-15T07:14:21;99596.58;;;4.23;100.00
57900;BME280;60605;53.716;19.940;2023-03-15T07:19:23;99599.34;;;4.26;100.00
57900;BME280;60605;53.716;19.940;2023-03-15T07:24:24;99609.79;;;4.39;100.00
57900;BME280;60605;53.716;19.940;2023-03-15T07:29:27;99614.94;;;4.42;100.00
57900;BME280;60605;53.716;19.940;2023-03-15T07:34:29;99619.00;;;4.40;100.00
57900;BME280;60605;53.716;19.940;2023-03-15T07:39:32;99622.52;;;4.46;100.00
57900;BME280;60605;53.716;19.940;2023-03-15T07:44:34;99634.38;;;4.65;100.00
57900;BME280;60605;53.716;19.940;2023-03-15T07:49:37;99638.08;;;4.83;100.00
57900;BME280;60605;53.716;19.940;2023-03-15T07:54:39;99645.41;;;5.10;98.93
57900;BME280;60605;53.716;19.940;2023-03-15T07:59:41;99660.47;;;5.28;97.15
57900;BME280;60605;53.716;19.940;2023-03-15T08:04:43;99665.66;;;5.43;96.73
57900;BME280;60605;53.716;19.940;2023-03-15T08:09:45;99675.20;;;5.60;95.87
57900;BME280;60605;53.716;19.940;2023-03-15T08:14:47;99683.55;;;5.73;95.47
57900;BME280;60605;53.716;19.940;2023-03-15T08:19:48;99691.33;;;5.85;95.03
57900;BME280;60605;53.716;19.940;2023-03-15T08:24:50;99703.34;;;5.82;93.37
57900;BME280;60605;53.716;19.940;2023-03-15T08:29:53;99713.36;;;5.67;92.31
57900;BME280;60605;53.716;19.940;2023-03-15T08:34:55;99719.45;;;5.60;92.72
57900;BME280;60605;53.716;19.940;2023-03-15T08:39:57;99731.01;;;5.64;92.99
57900;BME280;60605;53.716;19.940;2023-03-15T08:45:07;99733.79;;;5.84;93.05
57900;BME280;60605;53.716;19.940;2023-03-15T08:50:14;99738.15;;;6.16;91.28
57900;BME280;60605;53.716;19.940;2023-03-15T08:55:17;99748.38;;;6.67;90.75
57900;BME280;60605;53.716;19.940;2023-03-15T09:00:20;99757.94;;;7.27;88.78
57900;BME280;60605;53.716;19.940;2023-03-15T09:05:24;99769.29;;;7.68;86.32
57900;BME280;60605;53.716;19.940;2023-03-15T09:10:27;99781.95;;;7.95;85.00
57900;BME280;60605;53.716;19.940;2023-03-15T09:15:29;99788.98;;;7.87;82.76
57900;BME280;60605;53.716;19.940;2023-03-15T09:20:31;99791.07;;;7.63;82.01
57900;BME280;60605;53.716;19.940;2023-03-15T09:25:32;99794.55;;;7.62;82.41
57900;BME280;60605;53.716;19.940;2023-03-15T09:30:36;99808.89;;;7.79;82.09
57900;BME280;60605;53.716;19.940;2023-03-15T09:35:39;99816.40;;;8.30;80.62
57900;BME280;60605;53.716;19.940;2023-03-15T09:40:43;99824.15;;;8.52;77.92
57900;BME280;60605;53.716;19.940;2023-03-15T09:46:05;99833.51;;;8.32;77.62
57900;BME280;60605;53.716;19.940;2023-03-15T09:51:19;99831.94;;;8.00;78.04
57900;BME280;60605;53.716;19.940;2023-03-15T09:56:52;99837.20;;;7.58;77.22
57900;BME280;60605;53.716;19.940;2023-03-15T10:01:58;99838.67;;;7.22;78.00
57900;BME280;60605;53.716;19.940;2023-03-15T10:07:04;99844.83;;;7.02;78.67
57900;BME280;60605;53.716;19.940;2023-03-15T10:12:24;99849.38;;;6.95;79.30
57900;BME280;60605;53.716;19.940;2023-03-15T10:23:07;99850.36;;;7.11;80.21
57900;BME280;60605;53.716;19.940;2023-03-15T10:28:23;99852.27;;;7.77;79.80
57900;BME280;60605;53.716;19.940;2023-03-15T10:33:36;99859.51;;;8.31;78.48
57900;BME280;60605;53.716;19.940;2023-03-15T10:38:38;99864.84;;;8.64;76.27
57900;BME280;60605;53.716;19.940;2023-03-15T10:43:56;99868.91;;;8.78;75.22
57900;BME280;60605;53.716;19.940;2023-03-15T10:49:09;99867.77;;;8.82;75.40
57900;BME280;60605;53.716;19.940;2023-03-15T10:54:17;99875.14;;;8.82;74.84
57900;BME280;60605;53.716;19.940;2023-03-15T10:59:22;99874.73;;;8.66;73.73
57900;BME280;60605;53.716;19.940;2023-03-15T11:04:26;99873.34;;;8.43;73.22
57900;BME280;60605;53.716;19.940;2023-03-15T11:09:42;99877.23;;;8.08;73.27
57900;BME280;60605;53.716;19.940;2023-03-15T11:14:47;99883.52;;;7.89;74.37
57900;BME280;60605;53.716;19.940;2023-03-15T11:19:57;99891.66;;;7.91;74.58
57900;BME280;60605;53.716;19.940;2023-03-15T11:25:00;99897.67;;;7.90;74.70
57900;BME280;60605;53.716;19.940;2023-03-15T11:30:03;99902.25;;;7.88;75.27
57900;BME280;60605;53.716;19.940;2023-03-15T11:35:13;99909.30;;;7.91;74.82
57900;BME280;60605;53.716;19.940;2023-03-15T11:40:49;99908.25;;;7.89;74.62
57900;BME280;60605;53.716;19.940;2023-03-15T11:46:08;99912.74;;;7.75;74.49
57900;BME280;60605;53.716;19.940;2023-03-15T11:51:15;99914.52;;;7.75;74.55
57900;BME280;60605;53.716;19.940;2023-03-15T11:56:27;99920.83;;;7.89;74.63
57900;BME280;60605;53.716;19.940;2023-03-15T12:02:05;99916.84;;;8.03;73.55
57900;BME280;60605;53.716;19.940;2023-03-15T12:07:27;99923.02;;;8.02;73.32
57900;BME280;60605;53.716;19.940;2023-03-15T12:17:47;99932.59;;;7.61;73.35
57900;BME280;60605;53.716;19.940;2023-03-15T12:22:52;99937.98;;;7.26;73.06
57900;BME280;60605;53.716;19.940;2023-03-15T12:27:56;99942.59;;;6.73;73.73
57900;BME280;60605;53.716;19.940;2023-03-15T12:33:01;99942.03;;;6.24;74.94
57900;BME280;60605;53.716;19.940;2023-03-15T12:38:14;99938.24;;;5.89;76.03
57900;BME280;60605;53.716;19.940;2023-03-15T12:43:40;99937.36;;;5.68;77.24
57900;BME280;60605;53.716;19.940;2023-03-15T12:49:09;99936.77;;;5.65;78.37
57900;BME280;60605;53.716;19.940;2023-03-15T12:54:14;99952.98;;;5.53;79.13
57900;BME280;60605;53.716;19.940;2023-03-15T12:59:50;99978.91;;;5.25;79.70
57900;BME280;60605;53.716;19.940;2023-03-15T13:05:26;99995.93;;;4.88;80.78
57900;BME280;60605;53.716;19.940;2023-03-15T13:21:29;99980.40;;;4.13;87.38
57900;BME280;60605;53.716;19.940;2023-03-15T13:26:45;99993.44;;;4.32;89.13
57900;BME280;60605;53.716;19.940;2023-03-15T13:32:10;100005.21;;;4.48;90.21
57900;BME280;60605;53.716;19.940;2023-03-15T13:37:21;100007.73;;;4.45;91.05
57900;BME280;60605;53.716;19.940;2023-03-15T13:42:26;100015.14;;;4.43;92.09
57900;BME280;60605;53.716;19.940;2023-03-15T13:47:28;100030.81;;;4.59;92.87
57900;BME280;60605;53.716;19.940;2023-03-15T13:52:30;100039.01;;;4.85;92.78
57900;BME280;60605;53.716;19.940;2023-03-15T13:57:33;100044.44;;;4.94;91.84
57900;BME280;60605;53.716;19.940;2023-03-15T14:07:47;100056.42;;;4.71;91.91
57900;BME280;60605;53.716;19.940;2023-03-15T14:12:51;100062.02;;;4.60;92.53
57900;BME280;60605;53.716;19.940;2023-03-15T14:17:57;100063.65;;;4.58;92.81
57900;BME280;60605;53.716;19.940;2023-03-15T14:23:02;100068.23;;;4.60;92.80
57900;BME280;60605;53.716;19.940;2023-03-15T14:28:05;100071.48;;;4.75;92.85
57900;BME280;60605;53.716;19.940;2023-03-15T14:38:37;100072.90;;;4.99;90.59
57900;BME280;60605;53.716;19.940;2023-03-15T14:43:40;100071.48;;;5.12;90.71
57900;BME280;60605;53.716;19.940;2023-03-15T14:48:42;100073.11;;;5.35;90.14
57900;BME280;60605;53.716;19.940;2023-03-15T14:53:45;100074.91;;;5.50;89.12
57900;BME280;60605;53.716;19.940;2023-03-15T14:58:49;100079.04;;;5.60;88.44
57900;BME280;60605;53.716;19.940;2023-03-15T15:04:01;100078.41;;;5.63;87.58
57900;BME280;60605;53.716;19.940;2023-03-15T15:09:04;100086.42;;;5.57;87.27
57900;BME280;60605;53.716;19.940;2023-03-15T15:14:14;100089.95;;;5.44;87.36
57900;BME280;60605;53.716;19.940;2023-03-15T15:19:16;100094.36;;;5.22;88.00
57900;BME280;60605;53.716;19.940;2023-03-15T15:24:19;100109.48;;;5.06;89.11
57900;BME280;60605;53.716;19.940;2023-03-15T15:29:23;100131.84;;;4.85;89.34
57900;BME280;60605;53.716;19.940;2023-03-15T15:34:25;100142.18;;;4.40;89.40
57900;BME280;60605;53.716;19.940;2023-03-15T15:39:27;100149.92;;;3.87;91.45
57900;BME280;60605;53.716;19.940;2023-03-15T15:44:30;100157.87;;;3.53;93.61
57900;BME280;60605;53.716;19.940;2023-03-15T15:49:31;100163.01;;;3.44;95.48
57900;BME280;60605;53.716;19.940;2023-03-15T15:54:34;100162.18;;;3.53;96.72
57900;BME280;60605;53.716;19.940;2023-03-15T15:59:37;100159.39;;;3.62;96.54
57900;BME280;60605;53.716;19.940;2023-03-15T16:04:39;100158.06;;;3.60;95.99
57900;BME280;60605;53.716;19.940;2023-03-15T16:09:45;100162.74;;;3.47;95.96
57900;BME280;60605;53.716;19.940;2023-03-15T16:14:50;100166.63;;;3.30;96.87
57900;BME280;60605;53.716;19.940;2023-03-15T16:19:53;100168.66;;;3.12;97.53
57900;BME280;60605;53.716;19.940;2023-03-15T16:24:56;100176.52;;;2.98;98.07
57900;BME280;60605;53.716;19.940;2023-03-15T16:30:05;100186.96;;;2.80;98.53
57900;BME280;60605;53.716;19.940;2023-03-15T16:35:12;100197.55;;;2.60;99.04
57900;BME280;60605;53.716;19.940;2023-03-15T16:40:25;100203.68;;;2.40;99.53
57900;BME280;60605;53.716;19.940;2023-03-15T16:45:28;100202.52;;;2.18;99.97
57900;BME280;60605;53.716;19.940;2023-03-15T16:50:31;100212.80;;;1.99;100.00
57900;BME280;60605;53.716;19.940;2023-03-15T16:55:34;100215.52;;;1.79;100.00
57900;BME280;60605;53.716;19.940;2023-03-15T17:00:38;100223.88;;;1.61;100.00
57900;BME280;60605;53.716;19.940;2023-03-15T17:05:47;100233.25;;;1.47;100.00
57900;BME280;60605;53.716;19.940;2023-03-15T17:10:50;100238.82;;;1.34;100.00
57900;BME280;60605;53.716;19.940;2023-03-15T17:15:53;100248.49;;;1.23;100.00
57900;BME280;60605;53.716;19.940;2023-03-15T17:20:55;100259.00;;;1.09;100.00
57900;BME280;60605;53.716;19.940;2023-03-15T17:25:57;100259.54;;;0.95;100.00
57900;BME280;60605;53.716;19.940;2023-03-15T17:30:59;100259.88;;;0.84;100.00
57900;BME280;60605;53.716;19.940;2023-03-15T17:36:23;100264.45;;;0.75;100.00
57900;BME280;60605;53.716;19.940;2023-03-15T17:41:34;100271.23;;;0.67;100.00
57900;BME280;60605;53.716;19.940;2023-03-15T17:46:37;100273.50;;;0.59;100.00
57900;BME280;60605;53.716;19.940;2023-03-15T17:51:40;100277.92;;;0.46;100.00
57900;BME280;60605;53.716;19.940;2023-03-15T17:56:42;100284.79;;;0.34;100.00
57900;BME280;60605;53.716;19.940;2023-03-15T18:01:44;100297.44;;;0.25;100.00
57900;BME280;60605;53.716;19.940;2023-03-15T18:06:49;100300.33;;;0.15;100.00
57900;BME280;60605;53.716;19.940;2023-03-15T18:11:51;100297.14;;;0.02;100.00
57900;BME280;60605;53.716;19.940;2023-03-15T18:16:53;100301.17;;;-0.10;100.00
57900;BME280;60605;53.716;19.940;2023-03-15T18:21:55;100302.45;;;-0.23;100.00
57900;BME280;60605;53.716;19.940;2023-03-15T18:26:57;100301.70;;;-0.31;100.00
57900;BME280;60605;53.716;19.940;2023-03-15T18:32:01;100301.96;;;-0.36;100.00
57900;BME280;60605;53.716;19.940;2023-03-15T18:37:04;100309.14;;;-0.43;100.00
57900;BME280;60605;53.716;19.940;2023-03-15T18:42:07;100315.23;;;-0.52;100.00
57900;BME280;60605;53.716;19.940;2023-03-15T18:47:09;100316.73;;;-0.63;100.00
57900;BME280;60605;53.716;19.940;2023-03-15T18:52:13;100318.50;;;-0.73;100.00
57900;BME280;60605;53.716;19.940;2023-03-15T18:57:17;100324.54;;;-0.81;100.00
57900;BME280;60605;53.716;19.940;2023-03-15T19:02:21;100330.38;;;-0.88;100.00
57900;BME280;60605;53.716;19.940;2023-03-15T19:07:24;100339.67;;;-0.95;100.00
57900;BME280;60605;53.716;19.940;2023-03-15T19:12:28;100342.91;;;-1.00;100.00
57900;BME280;60605;53.716;19.940;2023-03-15T19:17:30;100346.66;;;-1.02;100.00
57900;BME280;60605;53.716;19.940;2023-03-15T19:22:32;100352.12;;;-1.02;100.00
57900;BME280;60605;53.716;19.940;2023-03-15T19:27:36;100360.06;;;-1.03;100.00
57900;BME280;60605;53.716;19.940;2023-03-15T19:32:38;100359.34;;;-1.06;100.00
57900;BME280;60605;53.716;19.940;2023-03-15T19:37:44;100363.42;;;-1.10;100.00
57900;BME280;60605;53.716;19.940;2023-03-15T19:42:47;100372.15;;;-1.17;100.00
57900;BME280;60605;53.716;19.940;2023-03-15T19:47:50;100375.66;;;-1.24;100.00
57900;BME280;60605;53.716;19.940;2023-03-15T19:52:52;100381.27;;;-1.28;100.00
57900;BME280;60605;53.716;19.940;2023-03-15T19:57:54;100378.89;;;-1.32;100.00
57900;BME280;60605;53.716;19.940;2023-03-15T20:02:56;100382.98;;;-1.37;100.00
57900;BME280;60605;53.716;19.940;2023-03-15T20:07:58;100385.40;;;-1.43;100.00
57900;BME280;60605;53.716;19.940;2023-03-15T20:13:02;100391.06;;;-1.48;100.00
57900;BME280;60605;53.716;19.940;2023-03-15T20:18:06;100392.72;;;-1.53;100.00
57900;BME280;60605;53.716;19.940;2023-03-15T20:23:11;100395.80;;;-1.59;100.00
57900;BME280;60605;53.716;19.940;2023-03-15T20:28:15;100395.77;;;-1.66;100.00
57900;BME280;60605;53.716;19.940;2023-03-15T20:33:19;100397.77;;;-1.71;100.00
57900;BME280;60605;53.716;19.940;2023-03-15T20:38:21;100400.84;;;-1.72;100.00
57900;BME280;60605;53.716;19.940;2023-03-15T20:43:24;100405.95;;;-1.73;100.00
57900;BME280;60605;53.716;19.940;2023-03-15T20:48:29;100405.79;;;-1.77;100.00
57900;BME280;60605;53.716;19.940;2023-03-15T20:53:33;100411.20;;;-1.85;100.00
57900;BME280;60605;53.716;19.940;2023-03-15T20:58:36;100416.77;;;-1.91;100.00
57900;BME280;60605;53.716;19.940;2023-03-15T21:03:38;100420.77;;;-1.98;100.00
57900;BME280;60605;53.716;19.940;2023-03-15T21:08:41;100425.58;;;-2.04;100.00
57900;BME280;60605;53.716;19.940;2023-03-15T21:13:44;100424.60;;;-2.09;100.00
57900;BME280;60605;53.716;19.940;2023-03-15T21:18:47;100430.40;;;-2.14;100.00
57900;BME280;60605;53.716;19.940;2023-03-15T21:23:52;100432.63;;;-2.17;100.00
57900;BME280;60605;53.716;19.940;2023-03-15T21:28:54;100436.15;;;-2.17;100.00
57900;BME280;60605;53.716;19.940;2023-03-15T21:33:57;100439.54;;;-2.15;100.00
57900;BME280;60605;53.716;19.940;2023-03-15T21:38:59;100439.80;;;-2.17;100.00
57900;BME280;60605;53.716;19.940;2023-03-15T21:44:03;100443.30;;;-2.16;100.00
57900;BME280;60605;53.716;19.940;2023-03-15T21:49:06;100444.45;;;-2.19;100.00
57900;BME280;60605;53.716;19.940;2023-03-15T21:54:09;100454.09;;;-2.23;100.00
57900;BME280;60605;53.716;19.940;2023-03-15T21:59:12;100456.63;;;-2.29;100.00
57900;BME280;60605;53.716;19.940;2023-03-15T22:04:15;100456.58;;;-2.31;100.00
57900;BME280;60605;53.716;19.940;2023-03-15T22:09:19;100463.12;;;-2.33;100.00
57900;BME280;60605;53.716;19.940;2023-03-15T22:14:22;100468.80;;;-2.39;100.00
57900;BME280;60605;53.716;19.940;2023-03-15T22:19:24;100469.58;;;-2.45;100.00
57900;BME280;60605;53.716;19.940;2023-03-15T22:24:26;100473.68;;;-2.51;100.00
57900;BME280;60605;53.716;19.940;2023-03-15T22:29:28;100478.89;;;-2.54;100.00
57900;BME280;60605;53.716;19.940;2023-03-15T22:34:30;100482.98;;;-2.55;100.00
57900;BME280;60605;53.716;19.940;2023-03-15T22:39:34;100480.41;;;-2.56;100.00
57900;BME280;60605;53.716;19.940;2023-03-15T22:44:36;100479.85;;;-2.56;100.00
57900;BME280;60605;53.716;19.940;2023-03-15T22:49:38;100485.92;;;-2.55;100.00
57900;BME280;60605;53.716;19.940;2023-03-15T22:54:40;100492.16;;;-2.58;100.00
57900;BME280;60605;53.716;19.940;2023-03-15T22:59:43;100493.43;;;-2.62;100.00
57900;BME280;60605;53.716;19.940;2023-03-15T23:04:45;100494.06;;;-2.69;100.00
57900;BME280;60605;53.716;19.940;2023-03-15T23:09:47;100495.79;;;-2.77;100.00
57900;BME280;60605;53.716;19.940;2023-03-15T23:14:49;100500.23;;;-2.82;100.00
57900;BME280;60605;53.716;19.940;2023-03-15T23:19:52;100502.09;;;-2.85;100.00
57900;BME280;60605;53.716;19.940;2023-03-15T23:24:54;100507.27;;;-2.88;100.00
57900;BME280;60605;53.716;19.940;2023-03-15T23:29:58;100509.38;;;-2.88;100.00
57900;BME280;60605;53.716;19.940;2023-03-15T23:35:05;100517.66;;;-2.90;100.00
57900;BME280;60605;53.716;19.940;2023-03-15T23:40:08;100526.39;;;-2.94;100.00
57900;BME280;60605;53.716;19.940;2023-03-15T23:45:15;100533.77;;;-3.00;100.00
57900;BME280;60605;53.716;19.940;2023-03-15T23:50:18;100534.45;;;-3.03;100.00
57900;BME280;60605;53.716;19.940;2023-03-15T23:55:21;100536.00;;;-3.07;100.00
